Time;durP1;ratioP1;P1;durP2;ratioP2;P2;SDS_P1;SDS_P2;PMS_P1;PMS_P2;Temp;Humidity;BMP_temperature;BMP_pressure;BME280_temperature;BME280_humidity;BME280_pressure;Samples;Min_cycle;Max_cycle;Signal;HPM_P1;HPM_P2
2021/05/04 00:02:00;;;;;;;18.23;4.70;;;;;;;14.75;52.63;100681.41;4973292;28;20043;-72
2021/05/04 00:04:26;;;;;;;15.00;4.67;;;;;;;14.73;52.83;100688.47;4972128;28;20054;-73
2021/05/04 00:06:53;;;;;;;16.83;4.10;;;;;;;14.75;52.83;100687.03;4972745;28;20057;-73
2021/05/04 00:09:19;;;;;;;11.90;4.97;;;;;;;14.78;53.08;100669.56;4977159;28;20403;-73
2021/05/04 00:11:46;;;;;;;9.00;4.37;;;;;;;14.77;52.98;100673.53;4975202;28;20051;-72
2021/05/04 00:14:12;;;;;;;13.83;4.43;;;;;;;14.76;53.00;100677.47;4976886;28;20516;-73
2021/05/04 00:16:38;;;;;;;7.00;3.87;;;;;;;14.75;53.00;100670.19;4977412;28;20050;-67
2021/05/04 00:19:05;;;;;;;11.87;5.00;;;;;;;14.69;52.98;100655.34;4977361;28;20507;-68
2021/05/04 00:21:32;;;;;;;23.43;5.47;;;;;;;14.74;52.96;100651.66;4976127;28;20042;-74
2021/05/04 00:23:58;;;;;;;13.77;5.30;;;;;;;14.71;52.89;100645.81;4977550;28;20047;-75
2021/05/04 00:26:25;;;;;;;10.87;6.23;;;;;;;14.64;52.93;100641.41;4979211;28;20069;-73
2021/05/04 00:28:52;;;;;;;17.10;5.77;;;;;;;14.70;52.94;100644.97;4977336;28;20043;-75
2021/05/04 00:31:18;;;;;;;10.40;5.67;;;;;;;14.35;53.03;100593.75;4980684;28;20404;-73
2021/05/04 00:33:44;;;;;;;15.33;6.97;;;;;;;14.68;53.07;100645.25;4977742;28;20443;-72
2021/05/04 00:36:10;;;;;;;19.30;7.17;;;;;;;14.68;53.24;100652.88;4981556;28;20582;-73
2021/05/04 00:38:37;;;;;;;12.07;6.07;;;;;;;14.67;53.07;100648.41;4975521;28;20165;-74
2021/05/04 00:41:03;;;;;;;17.30;6.70;;;;;;;14.60;53.15;100633.91;4977040;28;20054;-75
2021/05/04 00:43:32;;;;;;;14.03;7.17;;;;;;;14.66;53.38;100638.28;4973701;28;20053;-74
2021/05/04 00:45:59;;;;;;;17.40;6.60;;;;;;;14.68;53.24;100642.44;4972447;28;20542;-72
2021/05/04 00:48:26;;;;;;;11.90;6.67;;;;;;;14.60;53.46;100634.72;4979777;28;20058;-72
2021/05/04 00:50:53;;;;;;;11.40;5.73;;;;;;;14.62;53.30;100634.41;4974956;28;20054;-72
2021/05/04 00:53:19;;;;;;;11.27;5.57;;;;;;;14.65;53.48;100640.25;4979490;28;20050;-71
2021/05/04 00:55:47;;;;;;;10.50;5.30;;;;;;;14.63;53.37;100630.44;4966233;28;20051;-72
2021/05/04 00:58:14;;;;;;;14.40;6.00;;;;;;;14.58;53.38;100624.94;4954910;28;20057;-71
2021/05/04 01:00:41;;;;;;;15.80;6.30;;;;;;;14.61;53.50;100638.38;4976497;28;20173;-71
2021/05/04 01:03:09;;;;;;;15.07;6.43;;;;;;;14.33;53.27;100584.81;4981801;28;20054;-72
2021/05/04 01:05:36;;;;;;;18.67;6.83;;;;;;;14.59;53.40;100620.97;4979632;28;20043;-76
2021/05/04 01:08:03;;;;;;;15.20;6.03;;;;;;;14.56;53.45;100627.19;4974213;28;20538;-72
2021/05/04 01:10:29;;;;;;;9.47;4.73;;;;;;;14.52;52.98;100620.53;4981022;28;20047;-80
2021/05/04 01:12:55;;;;;;;8.20;4.47;;;;;;;14.37;53.05;100605.53;4977489;28;20046;-70
2021/05/04 01:15:22;;;;;;;11.07;5.17;;;;;;;14.18;53.28;100599.09;4979822;28;20050;-74
2021/05/04 01:17:49;;;;;;;17.83;6.10;;;;;;;14.22;53.63;100617.00;4976495;28;20058;-73
2021/05/04 01:20:15;;;;;;;15.23;6.03;;;;;;;13.96;53.91;100597.72;4981099;28;20416;-76
2021/05/04 01:22:42;;;;;;;11.67;5.43;;;;;;;13.99;54.34;100602.75;4976496;28;20038;-71
2021/05/04 01:25:08;;;;;;;14.63;6.03;;;;;;;13.94;54.60;100599.16;4974864;28;20054;-84
2021/05/04 01:27:35;;;;;;;11.93;6.17;;;;;;;13.86;54.84;100591.41;4977652;28;20150;-72
2021/05/04 01:30:02;;;;;;;11.23;4.57;;;;;;;13.83;54.94;100598.47;4978843;28;20052;-75
2021/05/04 01:32:28;;;;;;;12.80;4.40;;;;;;;13.70;55.37;100594.41;4978406;28;20042;-68
2021/05/04 01:34:55;;;;;;;10.17;6.20;;;;;;;13.64;55.92;100597.59;4977080;28;20113;-65
2021/05/04 01:37:22;;;;;;;10.87;5.07;;;;;;;13.54;56.08;100594.91;4976500;28;20050;-77
2021/05/04 01:39:49;;;;;;;10.30;4.80;;;;;;;13.48;56.13;100586.56;4983857;28;20430;-72
2021/05/04 01:42:18;;;;;;;8.37;4.53;;;;;;;13.51;56.03;100593.56;4973889;28;20396;-77
2021/05/04 01:44:44;;;;;;;9.83;4.60;;;;;;;13.52;55.99;100592.41;4972646;28;20051;-70
2021/05/04 01:47:12;;;;;;;8.30;5.20;;;;;;;13.55;55.67;100591.81;4976135;28;20059;-66
2021/05/04 01:49:40;;;;;;;12.30;4.67;;;;;;;13.50;55.57;100598.34;4980132;28;20404;-78
2021/05/04 01:52:08;;;;;;;8.10;4.27;;;;;;;13.29;55.33;100554.81;4976101;28;20459;-72
2021/05/04 01:54:35;;;;;;;8.50;4.20;;;;;;;13.39;54.92;100565.91;4974613;28;20459;-65
2021/05/04 01:57:02;;;;;;;12.57;4.30;;;;;;;13.49;54.47;100579.81;4980923;28;20050;-66
2021/05/04 01:59:29;;;;;;;6.10;3.50;;;;;;;13.42;53.88;100572.91;4979695;28;20129;-76
2021/05/04 02:01:56;;;;;;;6.47;3.40;;;;;;;13.46;53.36;100572.00;4979223;28;20047;-79
2021/05/04 02:04:24;;;;;;;6.20;3.77;;;;;;;13.62;52.56;100585.84;4988184;28;20046;-81
2021/05/04 02:06:52;;;;;;;9.43;3.50;;;;;;;13.73;52.09;100590.19;4987991;28;20047;-79
2021/05/04 02:09:19;;;;;;;6.50;3.47;;;;;;;13.69;52.00;100577.88;4992902;28;20694;-74
2021/05/04 02:11:45;;;;;;;8.77;3.27;;;;;;;13.65;51.54;100566.44;4975287;28;20102;-75
2021/05/04 02:14:12;;;;;;;7.57;2.90;;;;;;;13.83;50.96;100584.44;4979369;28;20533;-75
2021/05/04 02:16:39;;;;;;;8.53;3.93;;;;;;;13.92;51.56;100595.84;4981242;28;20046;-76
2021/05/04 02:19:06;;;;;;;9.70;4.87;;;;;;;13.90;52.04;100598.94;4998826;28;20085;-80
2021/05/04 02:21:32;;;;;;;12.50;5.17;;;;;;;13.86;52.43;100591.41;4990808;28;20054;-77
2021/05/04 02:23:58;;;;;;;10.93;5.47;;;;;;;13.80;52.64;100596.25;4977472;28;20057;-67
2021/05/04 02:26:25;;;;;;;9.17;4.57;;;;;;;13.73;52.60;100598.59;4975056;28;20423;-75
2021/05/04 02:28:51;;;;;;;8.57;4.27;;;;;;;13.70;52.68;100602.00;4982145;28;20133;-70
2021/05/04 02:31:18;;;;;;;12.10;4.27;;;;;;;13.61;52.53;100589.78;4980255;28;20047;-75
2021/05/04 02:33:44;;;;;;;11.83;6.30;;;;;;;13.65;52.58;100596.47;4987253;28;20051;-74
2021/05/04 02:36:12;;;;;;;8.87;4.53;;;;;;;13.64;52.84;100603.19;4975000;28;20506;-75
2021/05/04 02:38:39;;;;;;;11.33;4.80;;;;;;;13.57;52.93;100599.91;4975152;28;20050;-70
2021/05/04 02:41:06;;;;;;;6.83;4.10;;;;;;;13.49;53.15;100595.81;4980912;28;20058;-72
2021/05/04 02:43:34;;;;;;;12.43;4.47;;;;;;;13.37;53.53;100590.63;4979600;28;20054;-72
2021/05/04 02:46:00;;;;;;;8.50;3.80;;;;;;;13.18;52.96;100582.13;4981370;28;20067;-71
2021/05/04 02:48:27;;;;;;;5.10;3.33;;;;;;;12.88;52.87;100576.81;4982498;28;20488;-72
2021/05/04 02:50:53;;;;;;;5.67;3.50;;;;;;;12.79;52.51;100599.91;4982532;28;20051;-75
2021/05/04 02:53:20;;;;;;;5.53;2.77;;;;;;;12.65;52.41;100582.09;4974739;28;20055;-70
2021/05/04 02:55:47;;;;;;;3.87;2.87;;;;;;;12.48;52.48;100571.31;4980284;28;20043;-68
2021/05/04 02:58:14;;;;;;;9.00;3.87;;;;;;;12.48;52.49;100596.53;4974803;28;20419;-69
2021/05/04 03:00:40;;;;;;;5.97;3.47;;;;;;;12.36;52.40;100579.25;4979660;28;20046;-70
2021/05/04 03:03:06;;;;;;;6.90;3.83;;;;;;;12.42;52.27;100585.66;4980581;28;20483;-67
2021/05/04 03:05:33;;;;;;;5.87;3.50;;;;;;;12.28;52.15;100568.69;4976178;28;20077;-68
2021/05/04 03:07:59;;;;;;;6.40;3.30;;;;;;;12.41;51.91;100578.34;4976034;28;20056;-66
2021/05/04 03:10:26;;;;;;;13.37;3.90;;;;;;;12.49;51.53;100575.78;4982102;28;20045;-68
2021/05/04 03:12:52;;;;;;;7.10;3.80;;;;;;;12.61;51.49;100588.56;4977995;28;20050;-70
2021/05/04 03:15:18;;;;;;;7.30;4.13;;;;;;;12.67;51.16;100576.19;4975855;28;20043;-68
2021/05/04 03:17:45;;;;;;;9.67;4.13;;;;;;;12.78;50.70;100572.97;4981927;28;20046;-68
2021/05/04 03:20:12;;;;;;;8.70;4.27;;;;;;;12.94;50.79;100584.06;4983656;28;20054;-75
2021/05/04 03:22:38;;;;;;;7.20;3.80;;;;;;;12.86;50.95;100562.28;4980460;28;20043;-67
2021/05/04 03:25:05;;;;;;;7.13;3.90;;;;;;;12.97;51.29;100580.66;4976218;28;20075;-71
2021/05/04 03:27:32;;;;;;;6.50;4.07;;;;;;;12.88;51.40;100576.81;4980040;28;20042;-70
2021/05/04 03:29:58;;;;;;;9.40;3.73;;;;;;;12.90;51.63;100597.00;4975786;28;20054;-68
2021/05/04 03:32:25;;;;;;;6.10;4.20;;;;;;;12.79;51.97;100585.88;4976981;28;20042;-70
2021/05/04 03:34:52;;;;;;;6.73;3.87;;;;;;;12.66;52.31;100592.16;4978642;28;20055;-68
2021/05/04 03:37:18;;;;;;;9.10;4.27;;;;;;;12.45;52.86;100580.31;4976804;28;20407;-70
2021/05/04 03:39:45;;;;;;;8.83;4.90;;;;;;;12.38;53.03;100577.00;4980792;28;20039;-68
2021/05/04 03:42:11;;;;;;;8.30;4.60;;;;;;;12.40;53.21;100590.69;4980434;28;20050;-69
2021/05/04 03:44:37;;;;;;;8.27;4.27;;;;;;;12.27;53.23;100572.59;4976921;28;20053;-69
2021/05/04 03:47:04;;;;;;;9.13;4.63;;;;;;;12.36;53.09;100587.66;4977095;28;20077;-70
2021/05/04 03:49:30;;;;;;;7.53;4.63;;;;;;;12.27;53.28;100575.38;4974715;28;20077;-69
2021/05/04 03:51:56;;;;;;;7.77;4.10;;;;;;;12.28;53.13;100574.28;4977611;28;20500;-69
2021/05/04 03:54:23;;;;;;;10.40;3.77;;;;;;;12.35;52.89;100580.38;4979013;28;20057;-68
2021/05/04 03:56:50;;;;;;;5.97;3.57;;;;;;;12.37;52.22;100566.91;4979853;28;20488;-68
2021/05/04 03:59:16;;;;;;;5.63;4.00;;;;;;;12.49;51.87;100580.56;4974457;28;20089;-68
2021/05/04 04:01:42;;;;;;;5.87;4.30;;;;;;;12.53;51.79;100588.06;4977580;28;20073;-68
2021/05/04 04:04:09;;;;;;;7.53;3.70;;;;;;;12.34;51.93;100573.09;4977953;28;20057;-68
2021/05/04 04:06:35;;;;;;;6.93;3.30;;;;;;;12.31;51.87;100562.50;4976812;28;20054;-68
2021/05/04 04:09:01;;;;;;;4.63;3.13;;;;;;;12.33;51.51;100560.22;4976608;28;20043;-69
2021/05/04 04:11:28;;;;;;;5.90;4.17;;;;;;;12.46;51.36;100587.56;4977775;28;20042;-67
2021/05/04 04:13:54;;;;;;;8.10;3.90;;;;;;;12.51;51.05;100587.53;4975274;28;20043;-68
2021/05/04 04:16:20;;;;;;;5.40;3.27;;;;;;;12.33;50.84;100554.63;4981914;28;20411;-77
2021/05/04 04:18:47;;;;;;;15.10;3.57;;;;;;;12.67;50.65;100601.41;4980800;28;20054;-74
2021/05/04 04:21:13;;;;;;;6.97;3.43;;;;;;;12.59;50.42;100565.63;4979319;28;20484;-69
2021/05/04 04:23:40;;;;;;;7.00;3.30;;;;;;;12.70;50.36;100592.41;4977468;28;20058;-70
2021/05/04 04:26:06;;;;;;;6.57;3.30;;;;;;;12.63;50.58;100594.72;4979232;28;20043;-76
2021/05/04 04:28:32;;;;;;;5.93;3.47;;;;;;;12.39;50.51;100567.47;4981409;28;20047;-71
2021/05/04 04:30:59;;;;;;;4.90;3.33;;;;;;;12.27;50.88;100558.59;4977300;28;20142;-70
2021/05/04 04:33:26;;;;;;;8.30;4.60;;;;;;;12.44;50.82;100584.22;4976357;28;20213;-69
2021/05/04 04:35:52;;;;;;;5.80;3.50;;;;;;;12.41;51.05;100590.41;4979098;28;20049;-72
2021/05/04 04:38:20;;;;;;;6.17;3.77;;;;;;;12.37;51.13;100583.72;4977032;28;20050;-71
2021/05/04 04:40:47;;;;;;;6.70;3.13;;;;;;;12.33;50.94;100582.63;4982496;28;20047;-70
2021/05/04 04:43:14;;;;;;;7.67;3.50;;;;;;;12.27;50.95;100587.44;4979085;28;20062;-75
2021/05/04 04:45:40;;;;;;;5.57;3.47;;;;;;;12.23;51.20;100594.72;4977224;28;20046;-72
2021/05/04 04:48:07;;;;;;;10.27;3.57;;;;;;;12.24;51.20;100589.97;4983582;28;20430;-72
2021/05/04 04:50:34;;;;;;;8.77;3.27;;;;;;;12.28;51.02;100602.28;4975221;28;20089;-67
2021/05/04 04:53:01;;;;;;;8.20;4.30;;;;;;;12.26;51.02;100587.72;4978779;28;20049;-66
2021/05/04 04:55:27;;;;;;;6.57;4.03;;;;;;;12.27;51.08;100595.84;4977544;28;20046;-67
2021/05/04 04:57:53;;;;;;;5.17;3.77;;;;;;;12.19;50.81;100578.81;4972803;28;20061;-66
2021/05/04 05:00:20;;;;;;;6.53;3.47;;;;;;;12.31;51.06;100602.53;4974835;28;20054;-64
2021/05/04 05:02:47;;;;;;;5.00;3.60;;;;;;;11.82;50.67;100521.38;4979411;28;20440;-65
2021/05/04 05:05:13;;;;;;;9.03;4.40;;;;;;;12.21;50.96;100584.97;4976852;28;20061;-66
2021/05/04 05:07:41;;;;;;;6.73;3.87;;;;;;;11.88;51.49;100579.00;4976018;28;20046;-67
2021/05/04 05:10:08;;;;;;;4.30;2.97;;;;;;;11.83;51.89;100607.84;4975750;28;20515;-66
2021/05/04 05:12:34;;;;;;;6.37;3.13;;;;;;;11.70;52.12;100604.81;4979230;28;20506;-66
2021/05/04 05:15:03;;;;;;;6.27;4.10;;;;;;;11.67;52.19;100611.00;4978849;28;20049;-67
2021/05/04 05:17:30;;;;;;;5.40;3.37;;;;;;;11.52;52.52;100600.69;4979490;28;20058;-65
2021/05/04 05:19:58;;;;;;;8.10;3.37;;;;;;;11.48;52.73;100603.22;4974929;28;20053;-64
2021/05/04 05:22:26;;;;;;;5.57;2.83;;;;;;;11.29;53.06;100596.59;4982524;28;20559;-65
2021/05/04 05:24:56;;;;;;;9.40;3.37;;;;;;;11.22;53.41;100590.47;4975697;28;20043;-79
2021/05/04 05:27:23;;;;;;;4.83;2.70;;;;;;;11.19;53.74;100593.81;4982128;28;20051;-69
2021/05/04 05:29:49;;;;;;;6.30;3.23;;;;;;;11.14;53.79;100605.84;4975082;28;20292;-83
2021/05/04 05:32:19;;;;;;;5.57;3.00;;;;;;;11.13;53.83;100609.75;4980781;28;20514;-74
2021/05/04 05:34:46;;;;;;;4.67;2.43;;;;;;;11.04;53.95;100594.69;4976856;28;20043;-71
2021/05/04 05:37:12;;;;;;;4.27;2.90;;;;;;;11.15;53.79;100605.56;4978790;28;20054;-78
2021/05/04 05:39:42;;;;;;;5.60;2.87;;;;;;;11.20;53.77;100620.66;4978262;28;20050;-70
2021/05/04 05:42:15;;;;;;;6.77;3.30;;;;;;;11.24;53.74;100611.41;4975594;28;20113;-67
2021/05/04 05:44:42;;;;;;;3.80;2.30;;;;;;;11.32;53.48;100623.97;4979836;28;20137;-70
2021/05/04 05:47:08;;;;;;;6.20;3.60;;;;;;;11.39;53.26;100621.72;4978841;28;20062;-70
2021/05/04 05:49:37;;;;;;;5.30;3.30;;;;;;;11.43;52.96;100610.81;4975603;28;20416;-64
2021/05/04 05:52:03;;;;;;;6.03;3.50;;;;;;;11.59;52.51;100613.25;4978267;28;20385;-64
2021/05/04 05:54:31;;;;;;;8.97;4.13;;;;;;;11.63;52.19;100608.75;4975742;28;20051;-63
2021/05/04 05:56:58;;;;;;;6.33;3.17;;;;;;;11.82;52.19;100631.31;4973855;28;20061;-67
2021/05/04 05:59:24;;;;;;;13.37;3.23;;;;;;;12.04;51.99;100642.19;4976259;28;20043;-69
2021/05/04 06:01:50;;;;;;;8.13;4.00;;;;;;;12.26;51.65;100638.13;4972449;28;20065;-62
2021/05/04 06:04:17;;;;;;;9.97;4.10;;;;;;;12.40;51.63;100633.53;4984713;28;20066;-65
2021/05/04 06:06:43;;;;;;;9.13;6.23;;;;;;;12.28;51.72;100596.69;4982154;28;20051;-71
2021/05/04 06:09:09;;;;;;;7.90;6.10;;;;;;;12.68;51.61;100648.72;4978784;28;20042;-70
2021/05/04 06:11:36;;;;;;;9.77;5.07;;;;;;;12.50;51.50;100593.41;4981359;28;20043;-72
2021/05/04 06:14:02;;;;;;;8.37;5.63;;;;;;;13.07;51.68;100652.63;4978991;28;20059;-72
2021/05/04 06:16:29;;;;;;;8.90;5.40;;;;;;;13.26;51.72;100656.38;4981532;28;20046;-74
2021/05/04 06:18:55;;;;;;;12.70;5.37;;;;;;;13.43;51.60;100651.13;4979856;28;20593;-70
2021/05/04 06:21:27;;;;;;;8.50;5.53;;;;;;;13.62;51.18;100650.38;4982205;28;20043;-69
2021/05/04 06:23:53;;;;;;;11.47;4.77;;;;;;;13.76;50.91;100654.13;4981703;28;20495;-70
2021/05/04 06:26:20;;;;;;;10.50;5.10;;;;;;;13.87;50.40;100632.38;4976343;28;20057;-69
2021/05/04 06:28:48;;;;;;;11.00;4.93;;;;;;;14.13;50.06;100630.06;4980577;28;20060;-70
2021/05/04 06:31:16;;;;;;;8.93;4.80;;;;;;;14.53;49.62;100661.53;4979745;28;20046;-69
2021/05/04 06:33:43;;;;;;;9.10;4.40;;;;;;;14.71;49.17;100663.50;4980416;28;20043;-70
2021/05/04 06:36:10;;;;;;;6.63;4.17;;;;;;;14.85;48.99;100667.19;4983915;28;20053;-71
2021/05/04 06:38:37;;;;;;;7.23;3.97;;;;;;;14.93;48.49;100663.69;4977624;28;20414;-71
2021/05/04 06:41:04;;;;;;;7.13;3.63;;;;;;;15.08;48.43;100661.75;4981505;28;20519;-69
2021/05/04 06:43:31;;;;;;;5.50;3.43;;;;;;;15.29;48.20;100676.28;4977969;28;20049;-70
2021/05/04 06:45:59;;;;;;;9.50;3.87;;;;;;;15.24;47.90;100654.69;4983383;28;20104;-69
2021/05/04 06:48:25;;;;;;;6.43;3.57;;;;;;;15.57;47.68;100689.25;4980458;28;20399;-70
2021/05/04 06:50:52;;;;;;;7.13;3.60;;;;;;;15.48;47.32;100688.28;4981744;28;20045;-69
2021/05/04 06:53:19;;;;;;;8.20;3.37;;;;;;;15.46;47.45;100698.22;4983452;28;20042;-68
2021/05/04 06:55:47;;;;;;;7.77;3.50;;;;;;;15.16;47.35;100686.38;4975484;28;20405;-72
2021/05/04 06:58:16;;;;;;;9.23;3.30;;;;;;;15.03;47.52;100687.16;4978926;28;20498;-70
2021/05/04 07:00:42;;;;;;;5.73;3.33;;;;;;;15.07;47.29;100699.44;4978535;28;20065;-68
2021/05/04 07:03:12;;;;;;;10.57;4.33;;;;;;;15.29;47.29;100710.06;4976723;28;20056;-69
2021/05/04 07:05:38;;;;;;;5.80;3.83;;;;;;;15.49;47.04;100694.78;4982268;28;20519;-69
2021/05/04 07:08:05;;;;;;;13.23;3.60;;;;;;;15.63;46.83;100690.00;4978648;28;20062;-71
2021/05/04 07:10:31;;;;;;;5.90;3.77;;;;;;;15.84;46.68;100698.91;4981831;28;20488;-69
2021/05/04 07:12:58;;;;;;;11.07;4.07;;;;;;;16.20;46.34;100695.34;4977767;28;20611;-72
2021/05/04 07:15:25;;;;;;;6.00;3.37;;;;;;;16.34;45.88;100694.19;4984884;28;20141;-70
2021/05/04 07:17:51;;;;;;;6.77;3.73;;;;;;;16.62;45.70;100705.41;4977110;28;20050;-71
2021/05/04 07:20:20;;;;;;;11.50;4.43;;;;;;;16.81;45.51;100706.06;4977416;28;20052;-70
2021/05/04 07:22:53;;;;;;;9.55;3.92;;;;;;;16.88;45.32;100699.16;4978438;28;20046;-70
2021/05/04 07:25:20;;;;;;;5.83;3.57;;;;;;;16.99;45.29;100694.94;4982661;28;20142;-67
2021/05/04 07:27:47;;;;;;;5.97;3.53;;;;;;;17.11;44.75;100709.31;4980537;28;20129;-69
2021/05/04 07:30:14;;;;;;;6.50;3.90;;;;;;;17.24;44.59;100699.94;4974582;28;20043;-68
2021/05/04 07:32:41;;;;;;;7.50;3.97;;;;;;;17.53;44.20;100709.91;4976664;28;20044;-69
2021/05/04 07:35:08;;;;;;;7.23;4.10;;;;;;;17.68;44.23;100703.84;4978714;28;20165;-71
2021/05/04 07:37:38;;;;;;;8.07;3.90;;;;;;;17.85;44.00;100713.59;4973977;28;20129;-71
2021/05/04 07:40:06;;;;;;;6.40;3.95;;;;;;;17.87;43.62;100703.63;4976984;28;20057;-69
2021/05/04 07:42:33;;;;;;;7.93;4.05;;;;;;;17.58;43.17;100639.19;4981801;28;20074;-71
2021/05/04 07:45:03;;;;;;;6.60;3.97;;;;;;;18.11;42.97;100714.50;4973263;28;20047;-68
2021/05/04 07:47:29;;;;;;;13.10;4.47;;;;;;;18.18;43.05;100716.84;4974930;28;20056;-69
2021/05/04 07:49:56;;;;;;;7.10;4.50;;;;;;;18.44;42.71;100728.25;4983177;28;20054;-69
2021/05/04 07:52:23;;;;;;;17.35;5.60;;;;;;;18.70;42.36;100726.28;4978672;28;20050;-69
2021/05/04 07:54:51;;;;;;;11.55;4.80;;;;;;;18.96;41.41;100730.31;4977079;28;20043;-69
2021/05/04 07:57:20;;;;;;;6.53;4.38;;;;;;;19.03;41.06;100736.31;4974030;28;20043;-67
2021/05/04 07:59:46;;;;;;;8.18;4.45;;;;;;;19.14;40.21;100740.47;4978199;28;20049;-70
2021/05/04 08:02:13;;;;;;;9.73;5.07;;;;;;;18.89;40.14;100691.22;4975737;28;20070;-71
2021/05/04 08:04:40;;;;;;;9.55;4.80;;;;;;;19.38;39.56;100754.97;4976042;28;20492;-68
2021/05/04 08:07:08;;;;;;;7.68;4.85;;;;;;;19.72;39.08;100755.22;4979920;28;20046;-68
2021/05/04 08:09:35;;;;;;;7.18;4.88;;;;;;;19.76;39.14;100742.06;4978449;28;20042;-68
2021/05/04 08:12:03;;;;;;;11.75;5.05;;;;;;;20.01;38.69;100749.66;4983132;28;20108;-70
2021/05/04 08:14:31;;;;;;;9.52;4.70;;;;;;;20.45;37.96;100749.44;4973939;28;20057;-69
2021/05/04 08:17:02;;;;;;;11.20;5.18;;;;;;;20.58;37.71;100754.91;4979544;28;20447;-70
2021/05/04 08:19:29;;;;;;;7.75;4.55;;;;;;;21.06;37.58;100753.53;4976975;28;20054;-70
2021/05/04 08:21:56;;;;;;;7.60;4.90;;;;;;;21.50;35.99;100702.88;4981841;28;20062;-67
2021/05/04 08:24:22;;;;;;;6.75;4.32;;;;;;;22.43;35.71;100751.56;4974402;28;20053;-68
2021/05/04 08:26:48;;;;;;;11.98;4.43;;;;;;;22.92;35.43;100756.38;4978820;28;20039;-71
2021/05/04 08:29:15;;;;;;;9.88;4.80;;;;;;;23.19;34.26;100749.09;4983662;28;20050;-69
2021/05/04 08:31:41;;;;;;;7.78;4.85;;;;;;;23.42;33.54;100764.44;4978445;28;20046;-67
2021/05/04 08:34:09;;;;;;;7.88;4.88;;;;;;;23.18;33.30;100753.13;4983057;28;20046;-68
2021/05/04 08:36:35;;;;;;;8.73;4.65;;;;;;;23.00;33.48;100740.34;4982390;28;20046;-70
2021/05/04 08:39:03;;;;;;;8.20;5.03;;;;;;;23.21;33.73;100746.69;4979962;28;20066;-68
2021/05/04 08:41:33;;;;;;;11.32;5.20;;;;;;;23.25;33.61;100753.34;4980574;28;20054;-69
2021/05/04 08:43:59;;;;;;;10.27;5.20;;;;;;;23.28;33.33;100738.38;4979519;28;20042;-70
2021/05/04 08:46:26;;;;;;;8.05;5.57;;;;;;;23.55;32.68;100745.22;4981375;28;20054;-69
2021/05/04 08:48:53;;;;;;;8.57;5.28;;;;;;;23.59;32.78;100748.19;4975426;28;20038;-71
2021/05/04 08:51:19;;;;;;;9.45;5.32;;;;;;;23.89;32.16;100766.56;4980856;28;20054;-70
2021/05/04 08:54:00;;;;;;;8.38;5.03;;;;;;;24.05;32.61;100766.59;4975692;28;20488;-69
2021/05/04 08:56:26;;;;;;;9.52;5.18;;;;;;;24.19;32.23;100748.19;4974781;28;20046;-71
2021/05/04 08:58:53;;;;;;;13.45;6.18;;;;;;;24.42;31.33;100763.50;4979306;28;20054;-70
2021/05/04 09:01:19;;;;;;;10.65;5.13;;;;;;;24.53;31.30;100760.91;4980181;28;20053;-68
2021/05/04 09:03:51;;;;;;;10.43;5.45;;;;;;;24.67;31.19;100754.72;4975052;28;20050;-68
2021/05/04 09:06:37;;;;;;;9.00;4.97;;;;;;;24.65;30.68;100751.38;4981263;28;20120;-71
2021/05/04 09:09:23;;;;;;;8.40;5.35;;;;;;;24.51;30.66;100740.44;4975016;28;20522;-69
2021/05/04 09:17:32;;;;;;;10.80;5.40;;;;;;;24.86;30.24;100751.09;4981309;28;20050;-68
2021/05/04 09:22:45;;;;;;;11.85;4.93;;;;;;;25.06;29.51;100750.75;4980238;28;20060;-68
2021/05/04 09:25:32;;;;;;;10.70;4.90;;;;;;;25.04;29.70;100755.97;4973892;28;20046;-70
2021/05/04 09:27:59;;;;;;;11.98;5.53;;;;;;;25.26;29.65;100757.31;4975807;28;20050;-68
2021/05/04 09:30:25;;;;;;;11.02;5.65;;;;;;;25.48;29.12;100764.31;4976984;28;20043;-68
2021/05/04 09:32:52;;;;;;;10.45;5.63;;;;;;;25.68;28.42;100750.81;4984598;28;20189;-69
2021/05/04 09:35:29;;;;;;;9.27;5.07;;;;;;;25.58;28.71;100740.00;4980970;28;20051;-70
2021/05/04 09:38:09;;;;;;;9.35;5.90;;;;;;;25.65;28.19;100756.47;4980514;28;20047;-70
2021/05/04 09:40:37;;;;;;;10.95;5.90;;;;;;;25.85;28.39;100745.84;4977347;28;20089;-71
2021/05/04 09:43:05;;;;;;;9.67;5.57;;;;;;;26.21;27.90;100761.63;4974747;28;20182;-68
2021/05/04 09:45:33;;;;;;;8.77;5.22;;;;;;;26.40;26.98;100747.22;4977051;28;20056;-69
2021/05/04 09:48:15;;;;;;;8.88;4.72;;;;;;;26.49;27.63;100738.38;4979791;28;20042;-68
2021/05/04 09:50:45;;;;;;;7.15;5.15;;;;;;;26.78;27.51;100745.41;4981892;28;20389;-68
2021/05/04 09:53:13;;;;;;;9.23;5.30;;;;;;;27.05;26.99;100760.53;4984066;28;20050;-67
2021/05/04 09:55:57;;;;;;;9.52;5.05;;;;;;;27.01;27.37;100748.19;4976138;28;20051;-71
2021/05/04 09:58:50;;;;;;;9.20;5.70;;;;;;;27.01;27.51;100745.31;4976887;28;20065;-69
2021/05/04 10:01:18;;;;;;;10.57;5.30;;;;;;;27.32;26.93;100752.72;4978392;28;20485;-69
2021/05/04 10:03:46;;;;;;;11.02;5.50;;;;;;;27.52;26.35;100735.31;4974537;28;20050;-70
2021/05/04 10:06:15;;;;;;;10.52;6.32;;;;;;;27.59;26.06;100753.47;4978066;28;20134;-70
2021/05/04 10:08:44;;;;;;;9.73;5.57;;;;;;;27.68;26.62;100755.19;4978955;28;20051;-67
2021/05/04 10:11:16;;;;;;;12.63;5.43;;;;;;;27.88;26.12;100759.53;4965194;28;20412;-71
2021/05/04 10:13:56;;;;;;;12.65;6.43;;;;;;;27.93;26.41;100756.31;4981421;28;20058;-71
2021/05/04 10:16:26;;;;;;;11.02;6.45;;;;;;;27.77;26.59;100758.63;4976370;28;20683;-69
2021/05/04 10:18:57;;;;;;;14.93;7.25;;;;;;;27.48;26.54;100749.63;4973977;28;20054;-69
2021/05/04 10:21:27;;;;;;;16.95;7.22;;;;;;;27.17;26.83;100757.44;4974459;28;20424;-68
2021/05/04 10:23:54;;;;;;;13.88;6.75;;;;;;;26.88;27.42;100767.66;4976846;28;20121;-68
2021/05/04 10:26:25;;;;;;;20.52;8.02;;;;;;;26.67;27.38;100748.09;4979200;28;20042;-69
2021/05/04 10:28:55;;;;;;;13.52;7.78;;;;;;;26.70;27.22;100763.69;4968209;28;20038;-69
2021/05/04 10:31:45;;;;;;;13.75;6.18;;;;;;;26.72;27.72;100758.41;4974921;28;20057;-68
2021/05/04 10:34:24;;;;;;;9.85;5.53;;;;;;;26.89;27.54;100762.75;4977034;28;20046;-68
2021/05/04 10:36:56;;;;;;;12.18;6.07;;;;;;;26.81;28.04;100761.00;4974158;28;20050;-70
2021/05/04 10:39:42;;;;;;;11.57;6.57;;;;;;;26.72;27.64;100751.84;4972893;28;20058;-68
2021/05/04 10:42:29;;;;;;;11.52;6.50;;;;;;;26.85;27.34;100751.22;4981180;28;20068;-68
2021/05/04 10:44:56;;;;;;;15.77;5.70;;;;;;;26.67;27.62;100773.88;4977511;28;20056;-69
2021/05/04 10:47:44;;;;;;;10.40;5.78;;;;;;;26.79;28.09;100761.38;4976895;28;20051;-67
2021/05/04 10:50:12;;;;;;;13.35;5.63;;;;;;;27.11;28.00;100769.59;4981642;28;20479;-68
2021/05/04 10:52:59;;;;;;;7.63;5.10;;;;;;;27.30;27.76;100762.94;4980919;28;20057;-68
2021/05/04 10:55:54;;;;;;;8.68;5.40;;;;;;;27.22;27.40;100769.78;4982653;28;20798;-67
2021/05/04 10:58:23;;;;;;;7.85;4.35;;;;;;;27.17;27.65;100766.03;4977563;28;20050;-68
2021/05/04 11:00:54;;;;;;;7.72;4.18;;;;;;;27.34;27.60;100776.09;4980560;28;20414;-68
2021/05/04 11:03:29;;;;;;;8.13;3.63;;;;;;;27.60;26.94;100760.03;4980341;28;20057;-68
2021/05/04 11:06:05;;;;;;;6.55;3.17;;;;;;;27.65;26.70;100768.28;4979684;28;20049;-67
2021/05/04 11:08:40;;;;;;;5.38;3.03;;;;;;;27.51;26.49;100777.53;4975376;28;20038;-67
2021/05/04 11:11:26;;;;;;;7.82;3.28;;;;;;;27.22;27.16;100764.06;4982849;28;20082;-67
2021/05/04 11:13:57;;;;;;;9.55;2.88;;;;;;;27.46;26.45;100766.41;4976793;28;20133;-67
2021/05/04 11:16:35;;;;;;;5.25;3.15;;;;;;;27.74;26.12;100765.09;4983889;28;20101;-67
2021/05/04 11:19:09;;;;;;;4.07;2.22;;;;;;;28.02;26.42;100765.44;4982414;28;20062;-70
2021/05/04 11:21:36;;;;;;;5.47;2.72;;;;;;;28.10;26.15;100775.78;4978573;28;20066;-70
2021/05/04 11:24:04;;;;;;;7.18;2.08;;;;;;;28.31;25.88;100754.22;4982892;28;20066;-70
2021/05/04 11:26:52;;;;;;;4.55;2.35;;;;;;;28.17;26.00;100766.41;4980842;28;20047;-69
2021/05/04 11:29:20;;;;;;;7.40;2.30;;;;;;;28.30;25.85;100761.16;4975281;28;20058;-70
2021/05/04 11:31:49;;;;;;;4.68;2.40;;;;;;;28.70;25.47;100759.47;4979071;28;20047;-69
2021/05/04 11:34:40;;;;;;;7.87;2.00;;;;;;;28.75;25.42;100759.09;4985707;28;20050;-71
2021/05/04 11:37:20;;;;;;;4.45;2.55;;;;;;;29.12;24.68;100756.06;4976709;28;20320;-71